• Join FlightAware (Why Join?)
  • Login
  • US Flag 
03:58PM EDT


 

Airport Tracker/Info


-or-


 

Live Flight TrackerFlight Track Log ✈ SWA1535 ✈ 26-Apr-2013 ✈ KFLL - KMDW

Flight Track Log - Related Links

Times and Time Zones

All times are in EDT time to prevent confusion due to time zone crossing. See the SWA1535 flight status page for this flight to view local times or setup timezone preferences in your user account.

Time Position Orientation Groundspeed Altitude Reporting Facility
EDT Latitude Longitude Course Direction KTS MPH feet Rate Location/Type
06:40AM 26.0728 -80.1411 84° East 152 175 700  Level Miami Center
06:41AM 26.0753 -80.1158 84° East 161 185 1,700 2,820 Climbing Miami Center
06:42AM 26.1033 -80.0867 43° Northeast 209 241 4,200 3,480 Climbing Miami Center
06:42AM 26.1197 -80.0986 327° Northwest 221 254 5,600 3,060 Climbing Miami Center
06:43AM 26.1458 -80.1408 305° West 272 313 7,300 3,120 Climbing Miami Center
06:44AM 26.1711 -80.2250 289° West 294 338 10,700 2,760 Climbing Miami Center
06:45AM 26.2064 -80.3186 293° West 311 358 12,900 2,580 Climbing Miami Center
06:46AM 26.2436 -80.4261 291° West 343 395 15,900 2,880 Climbing Miami Center
06:47AM 26.3039 -80.5231 305° West 369 425 18,700 2,580 Climbing Miami Center
06:48AM 26.3858 -80.5836 326° Northwest 375 432 21,100 2,400 Climbing Miami Center
06:49AM 26.4903 -80.6633 326° Northwest 406 467 23,600 2,400 Climbing Miami Center
06:50AM 26.5783 -80.7289 326° Northwest 418 481 25,900 2,220 Climbing Miami Center
06:51AM 26.6892 -80.8000 330° Northwest 418 481 28,100 2,160 Climbing Miami Center
06:52AM 26.7939 -80.8686 330° Northwest 423 487 30,300 2,100 Climbing Miami Center
06:53AM 26.8986 -80.9350 331° Northwest 423 487 32,300 1,920 Climbing Miami Center
06:54AM 27.0031 -80.9994 331° Northwest 423 487 34,200 1,800 Climbing Miami Center
06:55AM 27.1036 -81.0611 331° Northwest 418 481 36,000 1,680 Climbing Miami Center
06:56AM 27.1919 -81.1111 333° Northwest 403 464 37,600 660 Climbing Miami Center
06:57AM 27.3694 -81.2269 330° Northwest 393 452 38,000 120 Climbing Jacksonville Center
06:58AM 27.4639 -81.2861 331° Northwest 393 452 38,000  Level Jacksonville Center
06:59AM 27.5586 -81.3481 330° Northwest 393 452 38,000  Level Jacksonville Center
07:00AM 27.6511 -81.4028 332° Northwest 393 452 38,000  Level Jacksonville Center
07:01AM 27.7539 -81.4600 334° Northwest 385 443 38,000  Level Jacksonville Center
07:02AM 27.8544 -81.5053 338° Northwest 378 435 38,000  Level Jacksonville Center
07:03AM 27.9531 -81.5511 338° Northwest 378 435 38,000  Level Jacksonville Center
07:04AM 28.0536 -81.5992 337° Northwest 378 435 38,000  Level Jacksonville Center
07:05AM 28.1544 -81.6472 337° Northwest 378 435 38,000  Level Jacksonville Center
07:06AM 28.2569 -81.6978 337° Northwest 384 442 38,000  Level Jacksonville Center
07:07AM 28.3578 -81.7461 337° Northwest 384 442 38,000  Level Jacksonville Center
07:08AM 28.4478 -81.7947 335° Northwest 389 448 38,000  Level Jacksonville Center
07:09AM 28.5483 -81.8408 338° Northwest 389 448 38,000  Level Jacksonville Center
07:10AM 28.6489 -81.8894 337° Northwest 389 448 38,000  Level Jacksonville Center
07:11AM 28.7600 -81.9406 338° Northwest 389 448 38,000  Level Jacksonville Center
07:12AM 28.8606 -81.9869 338° Northwest 389 448 38,000  Level Jacksonville Center
07:13AM 28.9381 -82.0267 336° Northwest 389 448 38,000  Level Jacksonville Center
07:14AM 29.0447 -82.0828 335° Northwest 384 442 38,000  Level Jacksonville Center
07:15AM 29.1453 -82.1294 338° Northwest 378 435 38,000  Level Jacksonville Center
07:16AM 29.2436 -82.1761 338° Northwest 378 435 38,000  Level Jacksonville Center
07:17AM 29.3419 -82.2281 335° Northwest 378 435 38,000  Level Jacksonville Center
07:18AM 29.4383 -82.2750 337° Northwest 378 435 38,000  Level Jacksonville Center
07:19AM 29.5367 -82.3197 338° Northwest 378 435 38,000  Level Jacksonville Center
07:20AM 29.6350 -82.3692 336° Northwest 378 435 38,000  Level Jacksonville Center
07:21AM 29.7353 -82.4189 337° Northwest 378 435 38,000  Level Jacksonville Center
07:22AM 29.8358 -82.4664 338° Northwest 378 435 38,000  Level Jacksonville Center
07:23AM 29.9339 -82.5164 336° Northwest 378 435 38,000  Level Jacksonville Center
07:24AM 30.0447 -82.5733 336° Northwest 383 441 38,000  Level Jacksonville Center
07:25AM 30.1450 -82.6236 337° Northwest 383 441 38,000  Level Jacksonville Center
07:26AM 30.2328 -82.6667 337° Northwest 383 441 38,000  Level Jacksonville Center
07:27AM 30.3311 -82.7144 337° Northwest 378 435 38,000  Level Jacksonville Center
07:28AM 30.4294 -82.7650 336° Northwest 378 435 38,000  Level Jacksonville Center
07:29AM 30.5253 -82.8106 338° Northwest 378 435 38,000  Level Jacksonville Center
07:30AM 30.6339 -82.8708 334° Northwest 383 441 38,000  Level Jacksonville Center
07:31AM 30.7281 -82.9217 335° Northwest 383 441 38,000  Level Jacksonville Center
07:32AM 30.8303 -82.9675 339° North 383 441 38,000  Level Jacksonville Center
07:33AM 30.9306 -83.0208 335° Northwest 383 441 38,000  Level Jacksonville Center
07:34AM 31.0286 -83.0694 337° Northwest 383 441 38,000  Level Jacksonville Center
07:35AM 31.1244 -83.1231 334° Northwest 383 441 38,000  Level Jacksonville Center
07:36AM 31.2247 -83.1672 339° North 383 441 38,000  Level Jacksonville Center
07:38AM 31.4019 -83.2628 335° Northwest 387 445 38,000  Level Atlanta Center
07:39AM 31.5003 -83.3131 336° Northwest 380 437 38,000  Level Atlanta Center
07:40AM 31.5967 -83.3611 337° Northwest 380 437 38,000  Level Atlanta Center
07:41AM 31.6950 -83.4117 336° Northwest 380 437 38,000  Level Atlanta Center
07:42AM 31.7911 -83.4597 337° Northwest 380 437 38,000  Level Atlanta Center
07:43AM 31.8769 -83.5056 336° Northwest 380 437 38,000  Level Atlanta Center
07:44AM 31.9753 -83.5567 336° Northwest 380 437 38,000  Level Atlanta Center
07:45AM 32.0714 -83.6075 336° Northwest 380 437 38,000  Level Atlanta Center
07:46AM 32.1675 -83.6586 336° Northwest 380 437 38,000  Level Atlanta Center
07:47AM 32.2658 -83.7072 337° Northwest 380 437 38,000  Level Atlanta Center
07:48AM 32.3619 -83.7586 336° Northwest 380 437 38,000  Level Atlanta Center
07:49AM 32.4622 -83.8000 341° North 380 437 38,000  Level Atlanta Center
07:50AM 32.5708 -83.8294 347° North 380 437 38,000  Level Atlanta Center
07:51AM 32.6775 -83.8561 348° North 385 443 38,000  Level Atlanta Center
07:52AM 32.7839 -83.8806 349° North 385 443 38,000  Level Atlanta Center
07:53AM 32.8883 -83.9078 348° North 385 443 38,000  Level Atlanta Center
07:54AM 32.9906 -83.9347 348° North 390 449 38,000  Level Atlanta Center
07:55AM 33.1053 -83.9644 348° North 384 442 38,000  Level Atlanta Center
07:56AM 33.2119 -83.9942 347° North 378 435 38,000  Level Atlanta Center
07:57AM 33.3036 -84.0139 350° North 378 435 38,000  Level Atlanta Center
07:58AM 33.4081 -84.0414 348° North 378 435 38,000  Level Atlanta Center
07:59AM 33.5125 -84.0686 348° North 378 435 38,000  Level Atlanta Center
08:00AM 33.6169 -84.0936 349° North 373 429 38,000  Level Atlanta Center
08:01AM 33.7233 -84.1211 348° North 379 436 38,000  Level Atlanta Center
08:02AM 33.8297 -84.1489 348° North 379 436 38,000  Level Atlanta Center
08:03AM 33.9361 -84.1739 349° North 385 443 38,000  Level Atlanta Center
08:04AM 34.0447 -84.2092 345° North 395 455 38,000  Level Atlanta Center
08:05AM 34.1489 -84.2319 350° North 395 455 38,000  Level Atlanta Center
08:06AM 34.2575 -84.2600 348° North 395 455 38,000  Level Atlanta Center
08:07AM 34.3617 -84.2881 347° North 390 449 38,000  Level Atlanta Center
08:08AM 34.4661 -84.3158 348° North 385 443 38,000  Level Atlanta Center
08:09AM 34.5703 -84.3442 347° North 385 443 38,000  Level Atlanta Center
08:10AM 34.6828 -84.3747 347° North 375 432 38,000  Level Atlanta Center
08:11AM 34.7892 -84.4031 348° North 375 432 38,000  Level Atlanta Center
08:12AM 34.8894 -84.4311 347° North 375 432 38,000  Level Atlanta Center
08:13AM 34.9894 -84.4572 348° North 375 432 38,000  Level Atlanta Center
08:14AM 35.0936 -84.4881 346° North 370 426 38,000  Level Atlanta Center
08:15AM 35.1958 -84.5142 348° North 370 426 38,000  Level Atlanta Center
08:16AM 35.2978 -84.5425 347° North 370 426 38,000  Level Atlanta Center
08:17AM 35.4000 -84.5686 348° North 370 426 38,000  Level Atlanta Center
08:18AM 35.5042 -84.5975 347° North 370 426 38,000  Level Atlanta Center
08:19AM 35.6042 -84.6236 348° North 370 426 38,000  Level Atlanta Center
08:20AM 35.7064 -84.6500 348° North 370 426 38,000  Level Atlanta Center
08:21AM 35.8106 -84.6789 347° North 370 426 38,000  Level Atlanta Center
08:23AM 35.9742 -84.7236 348° North 386 444 38,000  Level Indianapolis Center
08:24AM 36.0983 -84.7583 347° North 387 445 38,000  Level Indianapolis Center
08:25AM 36.2033 -84.7867 348° North 386 444 38,000  Level Indianapolis Center
08:26AM 36.3072 -84.8156 347° North 385 443 38,000  Level Indianapolis Center
08:27AM 36.4119 -84.8453 347° North 386 444 38,000  Level Indianapolis Center
08:28AM 36.5169 -84.8744 347° North 387 445 38,000  Level Indianapolis Center
08:29AM 36.6214 -84.9036 347° North 385 443 38,000  Level Indianapolis Center
08:30AM 36.7269 -84.9333 347° North 388 447 38,000  Level Indianapolis Center
08:31AM 36.8328 -84.9636 347° North 390 449 38,000  Level Indianapolis Center
08:32AM 36.9572 -85.0003 347° North 383 441 38,000  Level Indianapolis Center
08:33AM 37.0644 -85.0283 348° North 383 441 38,000  Level Indianapolis Center
08:34AM 37.1678 -85.0575 347° North 379 436 38,000  Level Indianapolis Center
08:35AM 37.2708 -85.0878 347° North 377 434 38,000  Level Indianapolis Center
08:37AM 37.4431 -85.1367 347° North 379 436 38,000  Level Indianapolis Center
08:38AM 37.5467 -85.1653 348° North 379 436 38,000  Level Indianapolis Center
08:39AM 37.6486 -85.1961 347° North 377 434 38,000  Level Indianapolis Center
08:40AM 37.7539 -85.2269 347° North 383 441 38,000  Level Indianapolis Center
08:41AM 37.8522 -85.2539 348° North 389 448 38,000  Level Indianapolis Center
08:42AM 37.9581 -85.2839 347° North 389 448 38,000  Level Indianapolis Center
08:43AM 38.0850 -85.3214 347° North 389 448 38,000  Level Indianapolis Center
08:44AM 38.1919 -85.3517 347° North 392 451 38,000  Level Indianapolis Center
08:45AM 38.2992 -85.3828 347° North 393 452 38,000 -540 Level Indianapolis Center
08:46AM 38.4050 -85.4142 347° North 391 450 36,900 -1,320 Descending Indianapolis Center
08:47AM 38.5089 -85.4436 347° North 383 441 35,400 -960 Descending Indianapolis Center
08:48AM 38.6150 -85.4772 346° North 392 451 35,000 -240 Descending Indianapolis Center
08:49AM 38.7369 -85.5114 348° North 393 452 35,000 -540 Level Indianapolis Center
08:50AM 38.8414 -85.5431 347° North 386 444 33,900 -1,020 Descending Indianapolis Center
08:51AM 38.9417 -85.5722 347° North 370 426 32,900 -1,020 Descending Indianapolis Center
08:52AM 39.0403 -85.6022 347° North 364 419 31,900 -1,080 Descending Indianapolis Center
08:53AM 39.1375 -85.6325 346° North 358 412 30,800 -1,080 Descending Indianapolis Center
08:54AM 39.2328 -85.6603 347° North 351 404 29,800 -900 Descending Indianapolis Center
08:55AM 39.3289 -85.6894 347° North 352 405 29,000 -420 Descending Indianapolis Center
08:56AM 39.4381 -85.7225 347° North 347 399 29,000  Level Indianapolis Center
08:57AM 39.5317 -85.7503 347° North 344 396 29,000  Level Indianapolis Center
08:58AM 39.6253 -85.7789 347° North 344 396 29,000  Level Indianapolis Center
08:59AM 39.7231 -85.8086 347° North 358 412 29,000 -180 Level Indianapolis Center
09:00AM 39.8197 -85.8381 347° North 358 412 28,700 -1,080 Descending Indianapolis Center
09:02AM 39.9061 -85.8656 346° North 325 374 26,800 -1,860 Descending Indianapolis Center
09:03AM 39.9947 -85.8922 347° North 325 374 24,900 -1,380 Descending Indianapolis Center
09:04AM 40.0933 -85.9308 343° North 318 366 24,000 -540 Descending Indianapolis Center
09:04AM 40.1489 -85.9592 339° North 321 369 24,000 -420 Level Chicago Center
09:05AM 40.2336 -86.0028 339° North 327 376 23,300 -840 Descending Chicago Center
09:06AM 40.3183 -86.0475 338° Northwest 327 376 22,300 -1,020 Descending Chicago Center
09:07AM 40.4025 -86.0911 338° Northwest 326 375 21,300 -1,020 Descending Chicago Center
09:08AM 40.4878 -86.1347 339° North 328 377 20,300 -660 Descending Chicago Center
09:09AM 40.5844 -86.1867 338° Northwest 323 372 20,000 -600 Descending Chicago Center
09:10AM 40.6669 -86.2289 339° North 318 366 19,100 -960 Descending Chicago Center
09:11AM 40.7497 -86.2739 338° Northwest 307 353 18,100 -1,440 Descending Chicago Center
09:13AM 40.8281 -86.3161 338° Northwest 304 350 16,200 -1,800 Descending Chicago Center
09:14AM 40.9058 -86.3575 338° Northwest 302 348 14,400 -1,800 Descending Chicago Center
09:15AM 40.9814 -86.3969 338° Northwest 293 337 12,500 -1,620 Descending Chicago Center
09:16AM 41.0533 -86.4406 335° Northwest 285 328 11,100 -1,200 Descending Chicago Center
09:17AM 41.1033 -86.5178 311° West 276 318 10,100 -540 Descending Chicago Center
09:18AM 41.1525 -86.5933 311° West 269 310 10,100  Level Chicago Center
09:19AM 41.2150 -86.6892 311° West 284 327 10,100  Level Chicago Center
09:20AM 41.2622 -86.7636 310° West 278 320 10,100  Level Chicago Center
09:21AM 41.3119 -86.8400 311° West 275 316 10,100  Level Chicago Center
09:22AM 41.3592 -86.9139 310° West 265 305 10,100 -300 Level Chicago Center
09:23AM 41.4067 -86.9881 311° West 265 305 9,600 -1,260 Descending Chicago Center
09:24AM 41.4622 -87.0753 310° West 261 300 7,600 -1,740 Descending Chicago Center
09:25AM 41.5083 -87.1489 310° West 260 299 6,100 -1,080 Descending Chicago Center
09:25AM 41.5167 -87.2000 282° West 256 295 6,000 -120 Descending Chicago TRACON
09:26AM 41.5333 -87.2833 285° West 255 293 6,000 -360 Level Chicago TRACON
09:27AM 41.5333 -87.3667 270° West 253 291 5,400 -660 Descending Chicago TRACON
09:28AM 41.5544 -87.4200 298° West 258 297 5,000 -720 Descending Chicago Center
09:29AM 41.6089 -87.5003 312° West 248 285 4,100 -540 Descending Chicago Center
09:30AM 41.6500 -87.5622 312° West 239 275 4,000 -420 Descending Chicago Center
09:31AM 41.6919 -87.6211 314° West 229 264 3,300 -600 Descending Chicago Center
09:31AM 41.7000 -87.6333 311° West 207 238 3,200 -900 Descending Chicago TRACON
09:32AM 41.7500 -87.6833 323° Northwest 191 220 2,200 -720 Descending Chicago TRACON
09:33AM 41.7833 -87.6667 20° North 176 203 1,800 -420 Descending Chicago TRACON
09:34AM 41.8167 -87.6833 340° North 146 168 1,500 -420 Descending Chicago TRACON
09:35AM 41.8167 -87.7167 270° West 118 136 1,100 -420 Descending Chicago TRACON